createdAt,value
2023-02-03T00:02:03.031Z,71.68
2023-02-03T00:04:29.862Z,71.71
2023-02-03T00:06:56.752Z,71.84
2023-02-03T00:09:23.626Z,71.92
2023-02-03T00:11:50.499Z,71.65
2023-02-03T00:14:17.333Z,72.10
2023-02-03T00:16:44.172Z,71.96
2023-02-03T00:19:10.992Z,72.32
2023-02-03T00:21:37.768Z,72.29
2023-02-03T00:24:04.832Z,72.14
2023-02-03T00:26:31.636Z,72.34
2023-02-03T00:29:00.325Z,72.11
2023-02-03T00:31:27.296Z,72.44
2023-02-03T00:33:56.733Z,72.17
2023-02-03T00:36:25.187Z,72.63
2023-02-03T00:38:52.089Z,72.65
2023-02-03T00:41:20.237Z,72.65
2023-02-03T00:43:47.917Z,72.26
2023-02-03T00:46:15.480Z,72.54
2023-02-03T00:48:42.326Z,72.61
2023-02-03T00:51:09.116Z,72.35
2023-02-03T00:53:35.931Z,72.83
2023-02-03T00:56:02.726Z,72.41
2023-02-03T00:58:29.514Z,72.64
2023-02-03T01:00:59.466Z,72.52
2023-02-03T01:03:26.359Z,73.02
2023-02-03T01:05:53.132Z,72.70
2023-02-03T01:08:20.056Z,72.71
2023-02-03T01:10:46.965Z,72.90
2023-02-03T01:13:13.790Z,72.81
2023-02-03T01:15:47.930Z,72.80
2023-02-03T01:18:15.157Z,72.46
2023-02-03T01:20:41.985Z,72.58
2023-02-03T01:23:08.777Z,72.72
2023-02-03T01:25:36.072Z,72.85
2023-02-03T01:28:02.948Z,72.39
2023-02-03T01:30:30.021Z,72.79
2023-02-03T01:32:57.051Z,72.70
2023-02-03T01:35:23.810Z,72.72
2023-02-03T01:37:50.582Z,73.03
2023-02-03T01:40:17.881Z,72.73
2023-02-03T01:42:44.653Z,72.88
2023-02-03T01:45:13.449Z,72.95
2023-02-03T01:47:54.671Z,72.96
2023-02-03T01:50:29.619Z,72.73
2023-02-03T01:53:03.174Z,72.76
2023-02-03T01:55:40.617Z,72.74
2023-02-03T01:58:21.038Z,72.59
2023-02-03T02:00:49.728Z,73.03
2023-02-03T02:03:20.133Z,72.83
2023-02-03T02:06:08.123Z,72.58
2023-02-03T02:08:36.762Z,72.58
2023-02-03T02:11:05.493Z,72.58
2023-02-03T02:13:37.137Z,72.52
2023-02-03T02:16:37.649Z,72.56
2023-02-03T02:19:38.820Z,72.49
2023-02-03T02:22:21.425Z,72.71
2023-02-03T02:25:31.474Z,72.68
2023-02-03T02:28:22.015Z,72.60
2023-02-03T02:31:49.790Z,72.66
2023-02-03T02:35:00.055Z,72.53
2023-02-03T02:37:53.792Z,72.90
2023-02-03T02:40:37.015Z,72.99
2023-02-03T02:43:08.502Z,72.66
2023-02-03T02:45:48.682Z,72.61
2023-02-03T02:48:50.474Z,72.85
2023-02-03T02:51:18.217Z,72.67
2023-02-03T02:53:51.610Z,72.71
2023-02-03T02:56:19.681Z,72.63
2023-02-03T02:58:49.851Z,72.50
2023-02-03T03:01:17.881Z,72.72
2023-02-03T03:03:45.253Z,72.77
2023-02-03T03:06:31.812Z,72.42
2023-02-03T03:09:17.098Z,72.67
2023-02-03T03:11:54.471Z,72.39
2023-02-03T03:14:26.569Z,72.52
2023-02-03T03:17:18.489Z,72.63
2023-02-03T03:19:55.066Z,72.72
2023-02-03T03:22:29.617Z,72.34
2023-02-03T03:25:04.405Z,72.28
2023-02-03T03:27:37.985Z,72.57
2023-02-03T03:30:43.160Z,72.14
2023-02-03T03:33:10.324Z,72.59
2023-02-03T03:35:52.207Z,72.46
2023-02-03T03:38:34.535Z,72.21
2023-02-03T03:41:24.435Z,72.06
2023-02-03T03:43:56.778Z,72.26
2023-02-03T03:46:35.986Z,72.23
2023-02-03T03:49:05.193Z,72.38
2023-02-03T03:51:45.155Z,72.19
2023-02-03T03:54:16.059Z,72.01
2023-02-03T03:57:07.159Z,71.84
2023-02-03T03:59:39.572Z,71.80
2023-02-03T04:02:07.018Z,72.12
2023-02-03T04:04:36.713Z,71.92
2023-02-03T04:07:03.643Z,71.93
2023-02-03T04:09:30.556Z,71.89
2023-02-03T04:12:03.139Z,71.60
2023-02-03T04:14:33.580Z,71.65
2023-02-03T04:17:01.067Z,71.82
2023-02-03T04:19:28.043Z,71.82
2023-02-03T04:21:54.822Z,71.56
2023-02-03T04:24:21.834Z,71.45
2023-02-03T04:26:48.645Z,71.42
2023-02-03T04:29:15.436Z,71.39
2023-02-03T04:31:42.250Z,71.47
2023-02-03T04:34:09.060Z,71.40
2023-02-03T04:36:35.844Z,71.31
2023-02-03T04:39:02.671Z,71.29
2023-02-03T04:41:29.458Z,71.35
2023-02-03T04:43:56.220Z,71.26
2023-02-03T04:46:23.030Z,71.26
2023-02-03T04:48:49.794Z,71.05
2023-02-03T04:51:16.599Z,71.24
2023-02-03T04:53:43.360Z,71.16
2023-02-03T04:56:10.110Z,70.93
2023-02-03T04:58:37.271Z,70.85
2023-02-03T05:01:09.180Z,71.02
2023-02-03T05:03:36.437Z,70.73
2023-02-03T05:06:04.232Z,71.04
2023-02-03T05:08:31.293Z,70.84
2023-02-03T05:11:00.692Z,70.91
2023-02-03T05:13:28.777Z,70.58
2023-02-03T05:15:55.552Z,70.47
2023-02-03T05:18:22.319Z,70.57
2023-02-03T05:20:49.078Z,70.53
2023-02-03T05:23:15.848Z,70.26
2023-02-03T05:25:44.202Z,70.44
2023-02-03T05:28:11.032Z,70.34
2023-02-03T05:30:38.389Z,70.47
2023-02-03T05:33:05.216Z,70.26
2023-02-03T05:35:32.010Z,70.24
2023-02-03T05:37:59.492Z,70.37
2023-02-03T05:40:45.206Z,70.31
2023-02-03T05:43:12.480Z,70.44
2023-02-03T05:45:39.539Z,70.48
2023-02-03T05:48:07.349Z,70.20
2023-02-03T05:50:38.495Z,70.21
2023-02-03T05:53:06.862Z,70.11
2023-02-03T05:55:34.376Z,70.17
2023-02-03T05:58:01.260Z,70.15
2023-02-03T06:00:28.955Z,70.27
2023-02-03T06:02:58.866Z,70.21
2023-02-03T06:05:26.434Z,70.11
2023-02-03T06:07:54.000Z,69.92
2023-02-03T06:10:21.665Z,70.13
2023-02-03T06:12:49.429Z,70.11
2023-02-03T06:15:16.343Z,70.30
2023-02-03T06:17:48.234Z,70.19
2023-02-03T06:20:18.159Z,70.32
2023-02-03T06:22:45.077Z,69.91
2023-02-03T06:25:14.249Z,69.84
2023-02-03T06:27:41.300Z,69.96
2023-02-03T06:30:09.096Z,70.12
2023-02-03T06:32:35.993Z,70.14
2023-02-03T06:35:02.863Z,69.94
2023-02-03T06:37:29.662Z,69.98
2023-02-03T06:39:56.436Z,70.15
2023-02-03T06:42:23.255Z,70.17
2023-02-03T06:44:50.061Z,70.24
2023-02-03T06:47:16.825Z,70.06
2023-02-03T06:49:43.601Z,70.19
2023-02-03T06:52:10.396Z,70.09
2023-02-03T06:54:37.167Z,70.30
2023-02-03T06:57:04.127Z,70.52
2023-02-03T06:59:30.886Z,70.12
2023-02-03T07:01:57.975Z,70.47
2023-02-03T07:04:24.836Z,70.59
2023-02-03T07:06:51.608Z,70.69
2023-02-03T07:09:18.429Z,70.42
2023-02-03T07:11:45.183Z,70.57
2023-02-03T07:14:11.959Z,70.51
2023-02-03T07:16:39.412Z,70.57
2023-02-03T07:19:06.350Z,70.87
2023-02-03T07:21:33.159Z,70.64
2023-02-03T07:23:59.979Z,71.04
2023-02-03T07:26:26.794Z,70.90
2023-02-03T07:28:54.410Z,70.94
2023-02-03T07:31:21.785Z,70.93
2023-02-03T07:33:48.934Z,71.30
2023-02-03T07:36:15.731Z,71.18
2023-02-03T07:38:42.517Z,71.25
2023-02-03T07:41:09.402Z,71.32
2023-02-03T07:43:36.482Z,71.49
2023-02-03T07:46:03.590Z,71.28
2023-02-03T07:48:30.416Z,70.92
2023-02-03T07:50:57.249Z,71.21
2023-02-03T07:53:24.068Z,71.20
2023-02-03T07:55:51.024Z,71.36
2023-02-03T07:58:17.857Z,71.25
2023-02-03T08:00:45.078Z,71.52
2023-02-03T08:03:11.941Z,71.63
2023-02-03T08:05:38.709Z,71.62
2023-02-03T08:08:05.614Z,71.44
2023-02-03T08:10:32.605Z,71.63
2023-02-03T08:12:59.412Z,71.57
2023-02-03T08:15:26.171Z,71.42
2023-02-03T08:17:52.951Z,71.51
2023-02-03T08:20:19.891Z,71.65
2023-02-03T08:22:46.828Z,71.47
2023-02-03T08:25:13.641Z,71.45
2023-02-03T08:27:41.420Z,71.56
2023-02-03T08:30:12.335Z,71.20
2023-02-03T08:32:39.143Z,71.52
2023-02-03T08:35:06.678Z,71.39
2023-02-03T08:37:34.255Z,71.44
2023-02-03T08:40:01.055Z,71.56
2023-02-03T08:42:28.048Z,71.59
2023-02-03T08:44:54.901Z,71.33
2023-02-03T08:47:22.442Z,71.39
2023-02-03T08:49:49.239Z,71.46
2023-02-03T08:52:18.810Z,71.67
2023-02-03T08:54:46.899Z,71.43
2023-02-03T08:57:14.538Z,71.29
2023-02-03T08:59:43.673Z,71.65
2023-02-03T09:02:17.514Z,71.48
2023-02-03T09:04:46.671Z,71.37
2023-02-03T09:07:13.925Z,71.65
2023-02-03T09:09:40.739Z,71.46
2023-02-03T09:12:07.794Z,71.29
2023-02-03T09:14:35.222Z,71.62
2023-02-03T09:17:03.965Z,71.47
2023-02-03T09:19:34.709Z,71.56
2023-02-03T09:22:02.397Z,71.45
2023-02-03T09:24:29.323Z,71.67
2023-02-03T09:26:56.762Z,71.50
2023-02-03T09:29:23.624Z,71.58
2023-02-03T09:31:53.724Z,71.45
2023-02-03T09:34:21.729Z,71.33
2023-02-03T09:36:48.704Z,71.06
2023-02-03T09:39:15.730Z,71.12
2023-02-03T09:42:25.234Z,71.33
2023-02-03T09:45:14.995Z,71.45
2023-02-03T09:47:44.309Z,71.51
2023-02-03T09:50:34.045Z,71.57
2023-02-03T09:53:12.238Z,71.25
2023-02-03T09:55:44.126Z,71.37
2023-02-03T09:58:14.725Z,71.26
2023-02-03T10:00:50.870Z,71.34
2023-02-03T10:03:51.846Z,71.41
2023-02-03T10:06:39.838Z,71.43
2023-02-03T10:09:43.395Z,71.63
2023-02-03T10:12:45.039Z,71.60
2023-02-03T10:15:22.161Z,71.70
2023-02-03T10:18:01.220Z,71.58
2023-02-03T10:20:45.109Z,71.54
2023-02-03T10:23:27.495Z,71.54
2023-02-03T10:25:57.723Z,71.40
2023-02-03T10:28:30.835Z,71.50
2023-02-03T10:31:01.765Z,71.63
2023-02-03T10:33:31.662Z,71.63
2023-02-03T10:36:22.773Z,71.45
2023-02-03T10:38:58.641Z,71.30
2023-02-03T10:41:25.728Z,71.14
2023-02-03T10:43:53.823Z,70.30
2023-02-03T10:46:32.343Z,70.28
2023-02-03T10:48:59.282Z,70.02
2023-02-03T10:51:32.299Z,70.18
2023-02-03T10:54:00.367Z,70.11
2023-02-03T10:56:32.542Z,70.19
2023-02-03T10:59:00.784Z,69.88
2023-02-03T11:01:47.861Z,69.61
2023-02-03T11:04:32.096Z,69.94
2023-02-03T11:07:06.177Z,70.09
2023-02-03T11:09:40.604Z,69.81
2023-02-03T11:12:20.156Z,69.90
2023-02-03T11:14:53.270Z,70.28
2023-02-03T11:17:23.623Z,70.09
2023-02-03T11:19:53.496Z,70.12
2023-02-03T11:22:37.473Z,70.13
2023-02-03T11:25:17.339Z,70.28
2023-02-03T11:27:44.635Z,70.34
2023-02-03T11:30:27.168Z,70.49
2023-02-03T11:32:54.427Z,70.34
2023-02-03T11:35:33.501Z,69.91
2023-02-03T11:38:02.467Z,70.35
2023-02-03T11:40:34.155Z,69.92
2023-02-03T11:43:05.903Z,70.09
2023-02-03T11:45:43.436Z,69.94
2023-02-03T11:48:39.929Z,70.01
2023-02-03T11:51:51.881Z,70.08
2023-02-03T11:54:43.001Z,69.84
2023-02-03T11:57:39.878Z,69.95
2023-02-03T12:00:27.865Z,69.73
2023-02-03T12:03:35.280Z,69.54
2023-02-03T12:06:48.267Z,69.73
2023-02-03T12:09:57.021Z,69.28
2023-02-03T12:12:48.968Z,69.37
2023-02-03T12:15:46.984Z,69.39
2023-02-03T12:18:31.844Z,68.63
2023-02-03T12:21:18.684Z,68.21
2023-02-03T12:24:33.083Z,68.13
2023-02-03T12:27:29.294Z,67.77
2023-02-03T12:30:27.734Z,67.69
2023-02-03T12:32:59.999Z,67.38
2023-02-03T12:35:34.991Z,67.19
2023-02-03T12:38:12.145Z,66.66
2023-02-03T12:40:58.030Z,66.59
2023-02-03T12:43:39.708Z,65.96
2023-02-03T12:46:31.204Z,66.21
2023-02-03T12:49:13.731Z,65.04
2023-02-03T12:52:00.556Z,65.27
2023-02-03T12:54:55.004Z,64.62
2023-02-03T12:57:27.255Z,65.02
2023-02-03T13:00:29.987Z,63.76
2023-02-03T13:03:14.055Z,62.78
2023-02-03T13:06:15.194Z,63.72
2023-02-03T13:08:53.402Z,63.80
2023-02-03T13:11:41.080Z,62.88
2023-02-03T13:14:26.371Z,63.52
2023-02-03T13:17:23.381Z,63.40
2023-02-03T13:19:55.057Z,62.46
2023-02-03T13:22:24.188Z,62.68
2023-02-03T13:25:15.172Z,62.65
2023-02-03T13:27:59.885Z,62.67
2023-02-03T13:30:31.029Z,63.61
2023-02-03T13:33:48.401Z,63.45
2023-02-03T13:36:41.578Z,62.81
2023-02-03T13:39:47.928Z,61.66
2023-02-03T13:42:28.755Z,60.69
2023-02-03T13:45:23.919Z,60.72
2023-02-03T13:47:56.206Z,60.06
2023-02-03T13:50:28.994Z,59.93
2023-02-03T13:53:15.332Z,59.63
2023-02-03T13:56:03.982Z,60.16
2023-02-03T13:58:35.291Z,60.00
2023-02-03T14:01:30.261Z,60.38
2023-02-03T14:03:57.966Z,61.50
2023-02-03T14:06:52.456Z,60.75
2023-02-03T14:09:31.610Z,60.18
2023-02-03T14:12:20.155Z,59.78
2023-02-03T14:14:53.088Z,59.96
2023-02-03T14:17:42.458Z,59.76
2023-02-03T14:20:41.842Z,59.61
2023-02-03T14:23:18.226Z,59.29
2023-02-03T14:26:03.673Z,58.57
2023-02-03T14:28:44.192Z,58.53
2023-02-03T14:31:25.180Z,58.77
2023-02-03T14:34:05.867Z,58.28
2023-02-03T14:36:44.444Z,57.93
2023-02-03T14:39:20.420Z,57.78
2023-02-03T14:41:59.292Z,57.28
2023-02-03T14:45:03.141Z,56.95
2023-02-03T14:47:32.483Z,57.21
2023-02-03T14:50:17.322Z,57.29
2023-02-03T14:52:57.867Z,57.15
2023-02-03T14:55:52.527Z,57.05
2023-02-03T14:58:44.633Z,57.00
2023-02-03T15:01:36.408Z,56.54
2023-02-03T15:04:12.491Z,56.67
2023-02-03T15:06:45.420Z,56.36
2023-02-03T15:09:51.451Z,56.32
2023-02-03T15:12:27.086Z,56.07
2023-02-03T15:15:28.981Z,54.22
2023-02-03T15:18:20.375Z,55.68
2023-02-03T15:20:47.885Z,55.71
2023-02-03T15:23:26.292Z,55.64
2023-02-03T15:26:02.694Z,56.28
2023-02-03T15:28:30.650Z,55.34
2023-02-03T15:31:26.697Z,54.90
2023-02-03T15:33:56.616Z,55.65
2023-02-03T15:36:56.321Z,55.65
2023-02-03T15:39:57.366Z,56.21
2023-02-03T15:42:37.100Z,55.99
2023-02-03T15:45:37.783Z,55.88
2023-02-03T15:48:29.583Z,55.83
2023-02-03T15:51:07.183Z,55.41
2023-02-03T15:53:48.206Z,55.39
2023-02-03T15:56:40.857Z,55.32
2023-02-03T15:59:33.204Z,55.08
2023-02-03T16:02:06.663Z,55.87
2023-02-03T16:04:33.752Z,55.08
2023-02-03T16:07:00.596Z,55.20
2023-02-03T16:09:41.599Z,55.22
2023-02-03T16:12:27.598Z,55.25
2023-02-03T16:14:57.230Z,55.39
2023-02-03T16:17:39.108Z,55.62
2023-02-03T16:20:11.988Z,55.11
2023-02-03T16:23:09.007Z,54.97
2023-02-03T16:25:36.212Z,55.40
2023-02-03T16:28:28.277Z,55.62
2023-02-03T16:31:33.968Z,55.76
2023-02-03T16:34:21.763Z,55.89
2023-02-03T16:37:07.051Z,55.78
2023-02-03T16:39:52.407Z,55.94
2023-02-03T16:42:39.688Z,56.07
2023-02-03T16:45:36.510Z,56.01
2023-02-03T16:48:23.087Z,56.34
2023-02-03T16:50:51.840Z,56.36
2023-02-03T16:53:24.176Z,56.35
2023-02-03T16:55:54.364Z,56.18
2023-02-03T16:58:21.150Z,56.64
2023-02-03T17:00:51.347Z,56.61
2023-02-03T17:03:24.675Z,56.59
2023-02-03T17:05:52.264Z,56.78
2023-02-03T17:08:22.508Z,56.92
2023-02-03T17:10:49.881Z,56.56
2023-02-03T17:13:19.478Z,56.41
2023-02-03T17:15:52.770Z,56.46
2023-02-03T17:18:20.519Z,56.57
2023-02-03T17:20:47.788Z,56.71
2023-02-03T17:23:16.485Z,56.32
2023-02-03T17:25:49.258Z,56.52
2023-02-03T17:28:16.341Z,56.61
2023-02-03T17:30:43.218Z,56.58
2023-02-03T17:33:13.252Z,56.57
2023-02-03T17:35:42.153Z,56.79
2023-02-03T17:38:10.413Z,56.67
2023-02-03T17:54:29.531Z,57.34
2023-02-03T17:56:56.321Z,57.14
2023-02-03T17:59:23.264Z,57.08
2023-02-03T18:01:50.251Z,57.29
2023-02-03T18:04:17.017Z,57.29
2023-02-03T18:06:43.966Z,57.28
2023-02-03T18:09:13.976Z,57.21
2023-02-03T18:11:40.795Z,56.87
2023-02-03T18:14:16.357Z,56.91
2023-02-03T18:16:44.059Z,57.39
2023-02-03T18:19:15.024Z,57.03
2023-02-03T18:21:43.071Z,57.59
2023-02-03T18:24:12.844Z,57.05
2023-02-03T18:26:51.157Z,56.73
2023-02-03T18:29:18.775Z,57.18
2023-02-03T18:31:46.669Z,57.46
2023-02-03T18:34:14.290Z,57.13
2023-02-03T18:39:15.063Z,57.58
2023-02-03T18:41:42.044Z,57.58
2023-02-03T18:44:09.228Z,57.30
2023-02-03T18:46:36.017Z,57.65
2023-02-03T18:49:02.911Z,57.94
2023-02-03T18:51:29.738Z,57.97
2023-02-03T18:53:58.315Z,58.24
2023-02-03T18:56:34.881Z,58.27
2023-02-03T18:59:08.503Z,58.70
2023-02-03T19:01:36.256Z,58.72
2023-02-03T19:04:03.865Z,58.90
2023-02-03T19:06:32.740Z,58.98
2023-02-03T19:09:00.620Z,59.21
2023-02-03T19:11:27.529Z,59.10
2023-02-03T19:13:54.333Z,59.38
2023-02-03T19:16:21.435Z,58.99
2023-02-03T19:18:48.643Z,59.35
2023-02-03T19:21:15.728Z,59.59
2023-02-03T19:23:42.929Z,59.40
2023-02-03T19:26:10.226Z,59.47
2023-02-03T19:28:37.867Z,59.65
2023-02-03T19:31:11.134Z,59.42
2023-02-03T19:33:38.492Z,59.30
2023-02-03T19:36:06.717Z,59.64
2023-02-03T19:38:34.098Z,59.42
2023-02-03T19:41:02.379Z,59.59
2023-02-03T19:43:30.942Z,59.81
2023-02-03T19:45:58.374Z,59.91
2023-02-03T19:48:25.283Z,59.94
2023-02-03T19:50:52.053Z,59.70
2023-02-03T19:53:19.234Z,59.54
2023-02-03T19:55:46.566Z,59.78
2023-02-03T19:58:13.894Z,59.63
2023-02-03T20:00:41.894Z,59.83
2023-02-03T20:03:09.427Z,59.96
2023-02-03T20:05:36.472Z,59.98
2023-02-03T20:08:04.356Z,60.03
2023-02-03T20:10:32.848Z,60.18
2023-02-03T20:13:00.314Z,60.50
2023-02-03T20:15:27.179Z,60.48
2023-02-03T20:17:54.317Z,60.50
2023-02-03T20:20:21.188Z,60.35
2023-02-03T20:22:48.840Z,60.79
2023-02-03T20:25:16.257Z,60.99
2023-02-03T20:27:43.228Z,60.89
2023-02-03T20:30:11.142Z,61.59
2023-02-03T20:32:38.335Z,61.59
2023-02-03T20:35:06.279Z,61.65
2023-02-03T20:37:35.943Z,61.79
2023-02-03T20:40:16.996Z,61.81
2023-02-03T20:42:43.821Z,62.23
2023-02-03T20:45:18.870Z,62.02
2023-02-03T20:47:46.116Z,62.21
2023-02-03T20:50:23.596Z,62.70
2023-02-03T20:52:52.818Z,62.48
2023-02-03T20:55:22.508Z,62.95
2023-02-03T20:57:51.462Z,62.69
2023-02-03T21:00:21.927Z,62.85
2023-02-03T21:03:07.566Z,63.55
2023-02-03T21:05:41.924Z,63.08
2023-02-03T21:08:18.767Z,63.25
2023-02-03T21:10:47.801Z,63.77
2023-02-03T21:13:22.953Z,63.85
2023-02-03T21:15:52.835Z,63.98
2023-02-03T21:19:07.289Z,63.87
2023-02-03T21:21:40.210Z,64.24
2023-02-03T21:24:32.936Z,64.16
2023-02-03T21:27:00.421Z,64.58
2023-02-03T21:29:33.251Z,64.44
2023-02-03T21:32:00.335Z,64.98
2023-02-03T21:34:35.649Z,64.81
2023-02-03T21:37:27.400Z,64.52
2023-02-03T21:39:54.185Z,64.75
2023-02-03T21:42:40.926Z,64.92
2023-02-03T21:45:25.167Z,64.84
2023-02-03T21:47:52.988Z,65.19
2023-02-03T21:50:36.963Z,65.35
2023-02-03T21:53:10.158Z,65.08
2023-02-03T21:55:39.914Z,64.94
2023-02-03T21:58:28.981Z,65.00
2023-02-03T22:00:58.766Z,65.53
2023-02-03T22:03:39.541Z,65.54
2023-02-03T22:06:09.312Z,65.46
2023-02-03T22:08:41.893Z,65.66
2023-02-03T22:11:09.413Z,65.75
2023-02-03T22:13:36.435Z,65.60
2023-02-03T22:16:03.826Z,65.55
2023-02-03T22:18:30.926Z,65.89
2023-02-03T22:20:57.789Z,65.68
2023-02-03T22:23:24.589Z,65.64
2023-02-03T22:25:51.543Z,65.34
2023-02-03T22:28:18.409Z,65.46
2023-02-03T22:30:45.362Z,65.45
2023-02-03T22:33:12.153Z,65.38
2023-02-03T22:35:38.951Z,65.40
2023-02-03T22:38:05.714Z,65.76
2023-02-03T22:40:32.819Z,65.66
2023-02-03T22:42:59.772Z,65.54
2023-02-03T22:45:26.519Z,65.40
2023-02-03T22:47:53.283Z,65.69
2023-02-03T22:50:27.137Z,65.62
2023-02-03T22:53:03.926Z,65.96
2023-02-03T22:55:31.439Z,65.89
2023-02-03T22:57:59.130Z,66.09
2023-02-03T23:00:26.751Z,65.89
2023-02-03T23:02:54.357Z,66.18
2023-02-03T23:05:21.983Z,66.06
2023-02-03T23:07:49.515Z,65.99
2023-02-03T23:10:25.463Z,66.06
2023-02-03T23:12:52.716Z,66.08
2023-02-03T23:15:19.576Z,66.16
2023-02-03T23:17:46.708Z,66.08
2023-02-03T23:20:16.429Z,65.90
2023-02-03T23:22:44.209Z,66.06
2023-02-03T23:25:11.870Z,65.96
2023-02-03T23:27:39.256Z,66.26
2023-02-03T23:30:07.020Z,66.18
2023-02-03T23:32:33.915Z,66.19
2023-02-03T23:35:21.496Z,66.37
2023-02-03T23:37:48.271Z,66.31
2023-02-03T23:40:15.864Z,66.05
2023-02-03T23:42:42.673Z,65.96
2023-02-03T23:45:12.018Z,66.08
2023-02-03T23:47:43.901Z,66.02
2023-02-03T23:50:14.815Z,66.25
2023-02-03T23:52:41.581Z,65.93
2023-02-03T23:55:15.783Z,66.19
2023-02-03T23:57:42.874Z,66.03
